createdAt,value
2018-09-09T00:01:24.871Z,15.10
2018-09-09T00:03:53.272Z,15.00
2018-09-09T00:06:21.590Z,14.90
2018-09-09T00:08:49.903Z,14.70
2018-09-09T00:11:18.456Z,14.50
2018-09-09T00:13:46.780Z,14.50
2018-09-09T00:16:15.345Z,14.60
2018-09-09T00:18:44.018Z,14.60
2018-09-09T00:21:12.558Z,14.70
2018-09-09T00:23:40.900Z,14.70
2018-09-09T00:26:09.641Z,14.70
2018-09-09T00:28:38.268Z,14.70
2018-09-09T00:31:06.606Z,14.70
2018-09-09T00:33:35.177Z,14.80
2018-09-09T00:36:03.737Z,14.90
2018-09-09T00:38:32.067Z,14.80
2018-09-09T00:41:00.683Z,14.90
2018-09-09T00:43:29.276Z,14.90
2018-09-09T00:45:57.617Z,14.90
2018-09-09T00:48:26.061Z,14.80
2018-09-09T00:50:59.909Z,14.90
2018-09-09T00:54:34.681Z,14.80
2018-09-09T00:57:03.189Z,14.80
2018-09-09T00:59:31.664Z,14.80
2018-09-09T01:01:59.997Z,14.80
2018-09-09T01:04:28.633Z,14.80
2018-09-09T01:06:57.121Z,14.70
2018-09-09T01:09:30.842Z,14.80
2018-09-09T01:11:59.401Z,14.80
2018-09-09T01:14:28.540Z,14.80
2018-09-09T01:16:56.965Z,14.80
2018-09-09T01:19:25.428Z,14.90
2018-09-09T01:21:54.008Z,14.90
2018-09-09T01:24:22.557Z,14.80
2018-09-09T01:26:51.140Z,14.80
2018-09-09T01:29:19.709Z,14.80
2018-09-09T01:31:48.121Z,14.90
2018-09-09T01:34:16.456Z,15.00
2018-09-09T01:36:45.616Z,15.00
2018-09-09T01:39:14.051Z,15.00
2018-09-09T01:41:42.385Z,15.00
2018-09-09T01:44:10.838Z,15.10
2018-09-09T01:46:39.324Z,15.10
2018-09-09T01:49:07.661Z,15.00
2018-09-09T01:51:36.361Z,14.90
2018-09-09T01:54:04.661Z,15.00
2018-09-09T01:56:32.979Z,15.00
2018-09-09T01:59:01.322Z,15.10
2018-09-09T02:01:30.213Z,15.10
2018-09-09T02:03:58.517Z,15.10
2018-09-09T02:06:26.867Z,15.10
2018-09-09T02:08:55.168Z,15.10
2018-09-09T02:11:23.514Z,15.00
2018-09-09T02:13:51.824Z,15.00
2018-09-09T02:16:20.129Z,15.00
2018-09-09T02:18:48.468Z,15.00
2018-09-09T02:21:16.812Z,15.00
2018-09-09T02:23:45.149Z,14.90
2018-09-09T02:26:13.500Z,14.90
2018-09-09T02:28:41.833Z,14.90
2018-09-09T02:31:10.763Z,14.90
2018-09-09T02:33:39.085Z,14.90
2018-09-09T02:36:07.672Z,15.00
2018-09-09T02:38:36.040Z,15.00
2018-09-09T02:41:04.365Z,14.90
2018-09-09T02:43:32.692Z,14.90
2018-09-09T02:46:01.060Z,14.90
2018-09-09T02:48:29.400Z,14.90
2018-09-09T02:50:58.348Z,14.90
2018-09-09T02:53:26.656Z,14.90
2018-09-09T02:55:55.179Z,14.90
2018-09-09T02:58:24.276Z,14.80
2018-09-09T03:00:52.618Z,14.80
2018-09-09T03:03:20.933Z,14.80
2018-09-09T03:05:49.292Z,14.80
2018-09-09T03:08:17.593Z,14.80
2018-09-09T03:10:45.965Z,14.70
2018-09-09T03:13:14.278Z,14.50
2018-09-09T03:15:42.628Z,14.50
2018-09-09T03:18:10.943Z,14.40
2018-09-09T03:20:39.263Z,14.40
2018-09-09T03:23:07.559Z,14.40
2018-09-09T03:25:36.554Z,14.40
2018-09-09T03:28:04.867Z,14.50
2018-09-09T03:30:33.195Z,14.50
2018-09-09T03:33:01.516Z,14.40
2018-09-09T03:35:29.816Z,14.50
2018-09-09T03:37:58.193Z,14.50
2018-09-09T03:40:26.545Z,14.60
2018-09-09T03:42:54.921Z,14.60
2018-09-09T03:45:23.236Z,14.50
2018-09-09T03:47:51.565Z,14.50
2018-09-09T03:50:19.880Z,14.50
2018-09-09T03:52:48.834Z,14.60
2018-09-09T03:55:17.185Z,14.50
2018-09-09T03:57:45.490Z,14.50
2018-09-09T04:00:13.804Z,14.40
2018-09-09T04:02:42.124Z,14.40
2018-09-09T04:05:10.439Z,14.30
2018-09-09T04:07:38.865Z,14.40
2018-09-09T04:10:07.387Z,14.30
2018-09-09T04:12:35.690Z,14.30
2018-09-09T04:15:04.094Z,14.40
2018-09-09T04:17:32.406Z,14.30
2018-09-09T04:20:01.278Z,14.30
2018-09-09T04:22:29.620Z,14.30
2018-09-09T04:24:57.934Z,14.40
2018-09-09T04:27:26.294Z,14.40
2018-09-09T04:29:54.653Z,14.30
2018-09-09T04:32:22.963Z,14.30
2018-09-09T04:34:51.266Z,14.30
2018-09-09T04:37:19.596Z,14.40
2018-09-09T04:39:47.905Z,14.30
2018-09-09T04:42:16.261Z,14.30
2018-09-09T04:44:44.564Z,14.30
2018-09-09T04:47:12.874Z,14.30
2018-09-09T04:49:56.317Z,14.20
2018-09-09T04:52:24.885Z,14.30
2018-09-09T04:54:53.217Z,14.20
2018-09-09T04:57:21.536Z,14.20
2018-09-09T04:59:49.877Z,14.30
2018-09-09T05:02:18.167Z,14.20
2018-09-09T05:04:46.476Z,14.20
2018-09-09T05:07:14.800Z,14.20
2018-09-09T05:09:43.125Z,14.30
2018-09-09T05:12:11.889Z,14.30
2018-09-09T05:14:40.256Z,14.30
2018-09-09T05:17:08.565Z,14.30
2018-09-09T05:19:36.881Z,14.40
2018-09-09T05:22:05.331Z,14.40
2018-09-09T05:24:33.580Z,14.30
2018-09-09T05:27:01.941Z,14.40
2018-09-09T05:29:30.617Z,14.40
2018-09-09T05:31:58.939Z,14.50
2018-09-09T05:34:27.371Z,14.40
2018-09-09T05:36:56.127Z,14.40
2018-09-09T05:39:24.433Z,14.50
2018-09-09T05:41:52.768Z,14.50
2018-09-09T05:44:21.089Z,14.50
2018-09-09T05:46:49.425Z,14.50
2018-09-09T05:49:17.765Z,14.50
2018-09-09T05:51:46.071Z,14.60
2018-09-09T05:54:14.418Z,14.60
2018-09-09T05:56:48.577Z,14.60
2018-09-09T05:59:17.120Z,14.60
2018-09-09T06:01:48.745Z,14.60
2018-09-09T06:04:17.068Z,14.70
2018-09-09T06:06:46.980Z,14.70
2018-09-09T06:09:15.855Z,14.80
2018-09-09T06:11:44.831Z,14.90
2018-09-09T06:14:14.314Z,15.00
2018-09-09T06:16:43.745Z,15.20
2018-09-09T06:19:12.101Z,15.30
2018-09-09T06:21:40.477Z,15.10
2018-09-09T06:24:09.484Z,15.30
2018-09-09T06:26:37.789Z,15.30
2018-09-09T06:29:06.459Z,15.30
2018-09-09T06:31:42.195Z,15.40
2018-09-09T06:34:10.553Z,15.40
2018-09-09T06:36:38.965Z,15.50
2018-09-09T06:39:09.037Z,15.40
2018-09-09T06:41:38.982Z,15.50
2018-09-09T06:44:07.837Z,15.60
2018-09-09T06:46:36.233Z,15.60
2018-09-09T06:49:04.605Z,15.60
2018-09-09T06:51:34.098Z,15.90
2018-09-09T06:54:02.533Z,16.10
2018-09-09T06:56:31.288Z,16.00
2018-09-09T06:59:00.709Z,15.90
2018-09-09T07:01:29.197Z,15.90
2018-09-09T07:03:58.093Z,15.90
2018-09-09T07:06:27.336Z,16.20
2018-09-09T07:08:55.800Z,16.40
2018-09-09T07:11:34.251Z,16.50
2018-09-09T07:14:03.018Z,16.50
2018-09-09T07:16:31.377Z,16.70
2018-09-09T07:19:00.231Z,16.70
2018-09-09T07:21:29.964Z,16.60
2018-09-09T07:23:58.417Z,16.60
2018-09-09T07:26:27.676Z,16.60
2018-09-09T07:28:57.139Z,16.60
2018-09-09T07:31:25.497Z,16.70
2018-09-09T07:33:54.725Z,16.70
2018-09-09T07:36:24.357Z,16.70
2018-09-09T07:38:52.905Z,16.80
2018-09-09T07:41:22.943Z,16.80
2018-09-09T07:43:51.320Z,17.00
2018-09-09T07:46:19.897Z,17.20
2018-09-09T07:48:49.045Z,17.30
2018-09-09T07:51:19.331Z,17.40
2018-09-09T07:53:47.965Z,17.50
2018-09-09T07:56:17.434Z,17.50
2018-09-09T07:58:50.038Z,17.70
2018-09-09T08:01:18.473Z,17.80
2018-09-09T08:03:46.931Z,17.80
2018-09-09T08:06:15.336Z,17.90
2018-09-09T08:08:43.747Z,18.10
2018-09-09T08:11:12.142Z,18.20
2018-09-09T08:13:40.480Z,18.40
2018-09-09T08:16:08.899Z,18.60
2018-09-09T08:18:37.235Z,18.70
2018-09-09T08:21:05.616Z,18.90
2018-09-09T08:23:34.606Z,19.00
2018-09-09T08:26:02.903Z,19.20
2018-09-09T08:28:31.861Z,19.40
2018-09-09T08:31:00.238Z,19.50
2018-09-09T08:33:28.559Z,19.60
2018-09-09T08:35:56.870Z,19.60
2018-09-09T08:38:25.203Z,19.70
2018-09-09T08:40:53.517Z,19.70
2018-09-09T08:43:21.865Z,19.70
2018-09-09T08:45:50.282Z,19.70
2018-09-09T08:48:18.606Z,19.80
2018-09-09T08:50:46.921Z,20.00
2018-09-09T08:53:15.240Z,20.00
2018-09-09T08:55:43.553Z,20.20
2018-09-09T08:58:12.541Z,20.20
2018-09-09T09:00:40.890Z,20.30
2018-09-09T09:03:09.867Z,20.40
2018-09-09T09:05:38.941Z,20.40
2018-09-09T09:08:07.283Z,20.30
2018-09-09T09:10:36.272Z,20.20
2018-09-09T09:13:04.616Z,20.40
2018-09-09T09:15:32.961Z,20.10
2018-09-09T09:18:01.264Z,20.30
2018-09-09T09:20:29.633Z,20.40
2018-09-09T09:22:57.933Z,20.60
2018-09-09T09:25:26.225Z,20.70
2018-09-09T09:27:54.590Z,20.80
2018-09-09T09:30:22.934Z,20.90
2018-09-09T09:32:51.365Z,20.90
2018-09-09T09:35:20.453Z,20.70
2018-09-09T09:37:48.813Z,20.70
2018-09-09T09:40:17.128Z,20.70
2018-09-09T09:42:45.435Z,20.70
2018-09-09T09:45:13.760Z,20.60
2018-09-09T09:47:42.075Z,20.80
2018-09-09T09:50:10.469Z,20.70
2018-09-09T09:52:38.825Z,20.80
2018-09-09T09:55:07.209Z,20.90
2018-09-09T09:57:35.553Z,20.90
2018-09-09T10:00:03.941Z,21.10
2018-09-09T10:02:32.285Z,21.20
2018-09-09T10:05:00.602Z,21.20
2018-09-09T10:07:28.916Z,21.40
2018-09-09T10:09:57.249Z,21.40
2018-09-09T10:12:25.590Z,21.50
2018-09-09T10:14:54.141Z,21.90
2018-09-09T10:17:23.212Z,22.10
2018-09-09T10:19:56.769Z,22.10
2018-09-09T10:22:25.097Z,22.20
2018-09-09T10:24:53.501Z,22.20
2018-09-09T10:27:22.309Z,22.50
2018-09-09T10:29:50.620Z,22.70
2018-09-09T10:32:19.041Z,22.70
2018-09-09T10:34:47.377Z,22.90
2018-09-09T10:37:15.723Z,22.80
2018-09-09T10:39:44.056Z,22.80
2018-09-09T10:42:12.464Z,22.60
2018-09-09T10:44:40.841Z,22.60
2018-09-09T10:47:09.208Z,22.60
2018-09-09T10:49:37.883Z,22.70
2018-09-09T10:52:06.293Z,22.50
2018-09-09T10:54:34.664Z,22.70
2018-09-09T10:57:03.227Z,22.70
2018-09-09T10:59:41.205Z,23.10
2018-09-09T11:02:09.902Z,23.30
2018-09-09T11:04:38.237Z,23.40
2018-09-09T11:07:07.880Z,23.70
2018-09-09T11:09:37.708Z,24.00
2018-09-09T11:12:27.923Z,23.90
2018-09-09T11:14:58.012Z,23.90
2018-09-09T11:17:26.703Z,24.10
2018-09-09T11:19:56.513Z,24.00
2018-09-09T11:22:31.427Z,24.20
2018-09-09T11:24:59.780Z,25.00
2018-09-09T11:27:28.102Z,24.80
2018-09-09T11:29:56.426Z,25.40
2018-09-09T11:32:24.888Z,25.20
2018-09-09T11:35:01.446Z,25.10
2018-09-09T11:37:29.786Z,24.90
2018-09-09T11:39:58.112Z,24.70
2018-09-09T11:42:28.725Z,24.50
2018-09-09T11:44:57.461Z,24.30
2018-09-09T11:47:26.763Z,24.30
2018-09-09T11:49:55.135Z,24.60
2018-09-09T11:52:24.565Z,24.60
2018-09-09T11:54:53.154Z,24.60
2018-09-09T11:57:21.543Z,25.00
2018-09-09T11:59:50.393Z,24.90
2018-09-09T12:02:18.696Z,25.40
2018-09-09T12:04:47.928Z,25.40
2018-09-09T12:07:16.875Z,25.90
2018-09-09T12:09:45.198Z,26.70
2018-09-09T12:12:13.517Z,26.90
2018-09-09T12:14:41.933Z,26.60
2018-09-09T12:17:10.269Z,26.40
2018-09-09T12:19:38.610Z,27.40
2018-09-09T12:22:06.945Z,27.90
2018-09-09T12:24:35.241Z,27.70
2018-09-09T12:27:03.550Z,27.80
2018-09-09T12:29:32.032Z,28.70
2018-09-09T12:32:00.365Z,28.30
2018-09-09T12:34:28.689Z,27.20
2018-09-09T12:36:56.984Z,27.50
2018-09-09T12:39:25.309Z,28.50
2018-09-09T12:41:53.625Z,29.20
2018-09-09T12:44:27.163Z,28.50
2018-09-09T12:47:00.735Z,28.10
2018-09-09T12:49:29.114Z,28.30
2018-09-09T12:51:57.436Z,28.90
2018-09-09T12:54:25.764Z,28.70
2018-09-09T12:56:54.093Z,28.70
2018-09-09T12:59:22.450Z,29.10
2018-09-09T13:01:50.768Z,28.40
2018-09-09T13:04:19.080Z,27.70
2018-09-09T13:06:47.398Z,26.50
2018-09-09T13:09:15.752Z,26.20
2018-09-09T13:11:44.149Z,26.50
2018-09-09T13:14:12.457Z,26.90
2018-09-09T13:16:49.776Z,26.90
2018-09-09T13:19:18.335Z,26.90
2018-09-09T13:21:46.689Z,27.10
2018-09-09T13:24:15.185Z,27.10
2018-09-09T13:26:43.505Z,26.40
2018-09-09T13:29:12.438Z,25.80
2018-09-09T13:31:40.801Z,25.80
2018-09-09T13:34:09.126Z,26.50
2018-09-09T13:36:37.436Z,26.90
2018-09-09T13:39:12.813Z,27.50
2018-09-09T13:41:41.429Z,27.50
2018-09-09T13:44:09.785Z,27.80
2018-09-09T13:46:38.709Z,27.90
2018-09-09T13:49:07.081Z,27.60
2018-09-09T13:51:35.417Z,27.60
2018-09-09T13:54:03.746Z,27.20
2018-09-09T13:56:32.077Z,26.90
2018-09-09T13:59:00.406Z,26.90
2018-09-09T14:01:29.297Z,27.00
2018-09-09T14:03:57.702Z,26.80
2018-09-09T14:06:25.928Z,26.90
2018-09-09T14:08:54.225Z,27.10
2018-09-09T14:11:22.598Z,28.80
2018-09-09T14:13:57.385Z,29.00
2018-09-09T14:16:28.841Z,28.60
2018-09-09T14:18:57.158Z,28.00
2018-09-09T14:21:25.489Z,27.80
2018-09-09T14:23:54.413Z,29.00
2018-09-09T14:26:23.569Z,29.50
2018-09-09T14:28:52.057Z,28.50
2018-09-09T14:31:20.390Z,27.80
2018-09-09T14:33:49.091Z,28.70
2018-09-09T14:36:17.440Z,29.10
2018-09-09T14:38:45.749Z,29.10
2018-09-09T14:41:14.097Z,28.80
2018-09-09T14:43:42.425Z,28.80
2018-09-09T14:46:10.932Z,28.20
2018-09-09T14:48:39.118Z,27.70
2018-09-09T14:51:14.970Z,28.70
2018-09-09T14:53:43.347Z,28.70
2018-09-09T14:56:11.851Z,28.70
2018-09-09T14:58:40.261Z,28.60
2018-09-09T15:01:08.580Z,29.00
2018-09-09T15:03:36.913Z,29.60
2018-09-09T15:06:05.585Z,29.70
2018-09-09T15:08:33.962Z,29.40
2018-09-09T15:11:02.553Z,29.00
2018-09-09T15:13:32.304Z,29.30
2018-09-09T15:16:02.598Z,29.10
2018-09-09T15:18:30.968Z,29.20
2018-09-09T15:21:06.288Z,31.10
2018-09-09T15:23:34.629Z,30.90
2018-09-09T15:26:04.186Z,30.80
2018-09-09T15:28:33.048Z,30.60
2018-09-09T15:31:02.523Z,30.40
2018-09-09T15:33:30.913Z,30.50
2018-09-09T15:35:59.323Z,30.00
2018-09-09T15:38:27.790Z,29.50
2018-09-09T15:40:56.139Z,28.60
2018-09-09T15:43:24.524Z,28.00
2018-09-09T15:45:55.106Z,27.30
2018-09-09T15:48:23.406Z,26.90
2018-09-09T15:50:52.053Z,26.90
2018-09-09T15:53:21.158Z,26.60
2018-09-09T15:55:49.516Z,26.60
2018-09-09T15:58:17.849Z,26.60
2018-09-09T16:00:46.176Z,27.00
2018-09-09T16:03:15.799Z,27.10
2018-09-09T16:05:44.282Z,27.00
2018-09-09T16:08:12.589Z,27.10
2018-09-09T16:10:41.222Z,27.30
2018-09-09T16:13:09.693Z,27.30
2018-09-09T16:15:44.750Z,27.00
2018-09-09T16:18:13.137Z,27.30
2018-09-09T16:20:41.457Z,27.20
2018-09-09T16:23:13.860Z,26.50
2018-09-09T16:25:46.224Z,26.20
2018-09-09T16:28:15.808Z,26.00
2018-09-09T16:30:45.329Z,26.20
2018-09-09T16:33:13.668Z,25.90
2018-09-09T16:35:43.158Z,26.10
2018-09-09T16:38:11.658Z,26.10
2018-09-09T16:40:40.829Z,25.90
2018-09-09T16:43:09.188Z,25.70
2018-09-09T16:45:37.557Z,25.60
2018-09-09T16:48:05.927Z,25.50
2018-09-09T16:50:35.617Z,25.40
2018-09-09T16:53:04.008Z,25.20
2018-09-09T16:55:32.338Z,25.10
2018-09-09T16:58:02.202Z,24.90
2018-09-09T17:00:30.508Z,24.80
2018-09-09T17:02:58.900Z,24.80
2018-09-09T17:05:27.295Z,24.70
2018-09-09T17:07:55.625Z,24.80
2018-09-09T17:10:23.956Z,24.60
2018-09-09T17:12:52.367Z,24.60
2018-09-09T17:15:20.702Z,24.60
2018-09-09T17:17:49.111Z,24.50
2018-09-09T17:20:18.031Z,24.50
2018-09-09T17:22:46.431Z,24.50
2018-09-09T17:25:14.746Z,24.40
2018-09-09T17:27:43.094Z,24.40
2018-09-09T17:30:11.427Z,24.40
2018-09-09T17:32:39.736Z,24.30
2018-09-09T17:35:08.093Z,24.10
2018-09-09T17:37:36.440Z,23.90
2018-09-09T17:40:04.820Z,23.90
2018-09-09T17:42:33.256Z,23.70
2018-09-09T17:45:01.535Z,23.60
2018-09-09T17:47:29.886Z,23.40
2018-09-09T17:49:58.189Z,23.30
2018-09-09T17:52:26.574Z,23.20
2018-09-09T17:54:54.895Z,22.50
2018-09-09T17:57:23.244Z,22.20
2018-09-09T17:59:52.261Z,22.00
2018-09-09T18:02:20.589Z,21.80
2018-09-09T18:04:48.912Z,21.80
2018-09-09T18:07:17.249Z,21.70
2018-09-09T18:09:46.091Z,21.70
2018-09-09T18:12:14.405Z,21.50
2018-09-09T18:14:42.792Z,21.20
2018-09-09T18:17:11.128Z,21.30
2018-09-09T18:19:39.461Z,21.50
2018-09-09T18:22:07.759Z,21.60
2018-09-09T18:24:36.072Z,21.60
2018-09-09T18:27:04.412Z,21.60
2018-09-09T18:29:32.773Z,21.40
2018-09-09T18:32:01.117Z,21.20
2018-09-09T18:34:29.425Z,21.10
2018-09-09T18:36:57.790Z,21.00
2018-09-09T18:39:26.116Z,20.90
2018-09-09T18:41:54.435Z,20.90
2018-09-09T18:44:22.750Z,20.90
2018-09-09T18:46:51.095Z,20.70
2018-09-09T18:49:19.475Z,20.70
2018-09-09T18:51:47.764Z,20.70
2018-09-09T18:54:16.085Z,20.70
2018-09-09T18:56:44.443Z,20.50
2018-09-09T18:59:17.425Z,20.50
2018-09-09T19:01:45.828Z,20.40
2018-09-09T19:04:14.124Z,20.40
2018-09-09T19:06:42.641Z,20.30
2018-09-09T19:09:11.344Z,20.20
2018-09-09T19:11:43.021Z,20.10
2018-09-09T19:14:11.550Z,20.00
2018-09-09T19:16:49.802Z,19.80
2018-09-09T19:19:18.131Z,19.50
2018-09-09T19:21:49.412Z,19.30
2018-09-09T19:24:18.958Z,19.20
2018-09-09T19:26:47.385Z,19.10
2018-09-09T19:29:16.240Z,19.10
2018-09-09T19:31:44.605Z,19.30
2018-09-09T19:34:14.453Z,19.40
2018-09-09T19:36:42.909Z,19.30
2018-09-09T19:39:12.443Z,19.00
2018-09-09T19:41:41.016Z,18.90
2018-09-09T19:44:14.361Z,18.90
2018-09-09T19:46:42.776Z,19.10
2018-09-09T19:49:11.936Z,19.20
2018-09-09T19:51:40.757Z,19.20
2018-09-09T19:54:12.972Z,19.10
2018-09-09T19:56:44.654Z,19.00
2018-09-09T19:59:13.837Z,19.10
2018-09-09T20:01:42.372Z,19.10
2018-09-09T20:04:10.774Z,18.90
2018-09-09T20:06:39.441Z,18.80
2018-09-09T20:09:08.501Z,18.90
2018-09-09T20:11:37.361Z,18.80
2018-09-09T20:14:06.155Z,18.70
2018-09-09T20:16:37.434Z,18.70
2018-09-09T20:19:06.529Z,18.60
2018-09-09T20:21:36.099Z,18.60
2018-09-09T20:24:04.481Z,18.60
2018-09-09T20:26:35.613Z,18.50
2018-09-09T20:29:05.678Z,18.50
2018-09-09T20:31:34.338Z,18.60
2018-09-09T20:34:04.071Z,18.50
2018-09-09T20:36:32.723Z,18.50
2018-09-09T20:39:01.542Z,18.30
2018-09-09T20:41:30.269Z,18.20
2018-09-09T20:43:58.734Z,18.00
2018-09-09T20:46:27.595Z,17.80
2018-09-09T20:49:04.970Z,17.60
2018-09-09T20:51:38.139Z,17.50
2018-09-09T20:54:09.785Z,17.60
2018-09-09T20:56:38.380Z,17.60
2018-09-09T20:59:07.209Z,17.60
2018-09-09T21:01:35.504Z,17.50
2018-09-09T21:04:04.208Z,17.50
2018-09-09T21:06:33.864Z,17.60
2018-09-09T21:09:02.519Z,17.70
2018-09-09T21:11:31.357Z,17.70
2018-09-09T21:13:59.746Z,17.60
2018-09-09T21:16:28.073Z,17.50
2018-09-09T21:18:56.701Z,17.60
2018-09-09T21:21:25.495Z,17.50
2018-09-09T21:23:54.089Z,17.60
2018-09-09T21:26:22.691Z,17.50
2018-09-09T21:28:50.985Z,17.40
2018-09-09T21:31:19.574Z,17.70
2018-09-09T21:33:48.009Z,17.60
2018-09-09T21:36:16.333Z,17.60
2018-09-09T21:38:44.643Z,17.70
2018-09-09T21:41:12.987Z,17.80
2018-09-09T21:43:41.469Z,17.80
2018-09-09T21:46:09.821Z,17.80
2018-09-09T21:48:38.128Z,17.80
2018-09-09T21:51:06.452Z,18.00
2018-09-09T21:53:34.754Z,18.00
2018-09-09T21:56:03.105Z,18.00
2018-09-09T21:58:31.423Z,18.10
2018-09-09T22:01:05.089Z,18.00
2018-09-09T22:03:33.444Z,18.10
2018-09-09T22:06:01.777Z,18.10
2018-09-09T22:08:30.097Z,18.00
2018-09-09T22:10:58.395Z,17.90
2018-09-09T22:13:26.774Z,17.90
2018-09-09T22:15:55.072Z,17.90
2018-09-09T22:18:23.391Z,17.90
2018-09-09T22:20:51.689Z,17.80
2018-09-09T22:23:20.001Z,17.80
2018-09-09T22:25:48.306Z,17.80
2018-09-09T22:28:16.653Z,17.80
2018-09-09T22:33:16.904Z,17.80
2018-09-09T22:35:47.339Z,17.90
2018-09-09T22:38:15.659Z,17.80
2018-09-09T22:40:43.980Z,17.80
2018-09-09T22:43:12.308Z,17.80
2018-09-09T22:45:41.463Z,17.70
2018-09-09T22:48:10.616Z,17.60
2018-09-09T22:50:39.006Z,17.50
2018-09-09T22:53:07.366Z,17.50
2018-09-09T22:55:35.689Z,17.40
2018-09-09T22:58:03.984Z,17.50
2018-09-09T23:00:32.305Z,17.40
2018-09-09T23:03:00.700Z,17.50
2018-09-09T23:05:29.167Z,17.50
2018-09-09T23:07:57.439Z,17.40
2018-09-09T23:10:25.815Z,17.30
2018-09-09T23:12:54.196Z,17.40
2018-09-09T23:15:26.994Z,17.50
2018-09-09T23:17:55.596Z,17.60
2018-09-09T23:20:23.985Z,17.50
2018-09-09T23:22:53.141Z,17.50
2018-09-09T23:25:21.945Z,17.40
2018-09-09T23:27:50.940Z,17.40
2018-09-09T23:30:19.254Z,17.40
2018-09-09T23:32:47.781Z,17.40
2018-09-09T23:35:16.089Z,17.40
2018-09-09T23:37:44.585Z,17.30
2018-09-09T23:40:12.909Z,17.20
2018-09-09T23:42:41.224Z,17.30
2018-09-09T23:45:09.567Z,17.20
2018-09-09T23:47:37.899Z,17.10
2018-09-09T23:50:06.488Z,17.00
2018-09-09T23:52:34.797Z,17.00
2018-09-09T23:55:03.148Z,17.00
2018-09-09T23:57:31.480Z,16.90
2018-09-09T23:59:59.802Z,16.90
